Time;durP1;ratioP1;P1;durP2;ratioP2;P2;SDS_P1;SDS_P2;PMS_P1;PMS_P2;Temp;Humidity;BMP_temperature;BMP_pressure;BME280_temperature;BME280_humidity;BME280_pressure;Samples;Min_cycle;Max_cycle;Signal;HPM_P1;HPM_P2
2023/06/29 00:00:05;;;;;;;3.03;2.43;;;;;;;;;;5052668;28;20193;-78
2023/06/29 00:02:32;;;;;;;3.87;2.80;;;;;;;;;;5054591;28;20629;-78
2023/06/29 00:04:58;;;;;;;2.87;2.50;;;;;;;;;;5031794;28;20225;-78
2023/06/29 00:07:25;;;;;;;3.13;2.50;;;;;;;;;;5048811;28;20306;-78
2023/06/29 00:09:54;;;;;;;3.67;2.60;;;;;;;;;;5041966;28;20257;-78
2023/06/29 00:12:20;;;;;;;4.00;2.60;;;;;;;;;;5018200;28;20182;-78
2023/06/29 00:14:46;;;;;;;4.30;2.37;;;;;;;;;;5035077;28;20198;-78
2023/06/29 00:17:14;;;;;;;4.67;3.10;;;;;;;;;;5028152;28;20251;-78
2023/06/29 00:19:41;;;;;;;4.23;2.90;;;;;;;;;;5055104;28;20170;-78
2023/06/29 00:22:08;;;;;;;3.77;3.00;;;;;;;;;;5054736;28;20381;-78
2023/06/29 00:24:42;;;;;;;3.87;2.73;;;;;;;;;;5004631;28;20301;-78
2023/06/29 00:27:15;;;;;;;5.43;3.70;;;;;;;;;;5019884;28;20205;-78
2023/06/29 00:29:42;;;;;;;4.80;3.27;;;;;;;;;;5017986;28;20167;-78
2023/06/29 00:32:09;;;;;;;4.97;3.20;;;;;;;;;;5054817;28;20184;-78
2023/06/29 00:34:36;;;;;;;3.63;2.70;;;;;;;;;;5036667;28;20205;-78
2023/06/29 00:37:03;;;;;;;3.77;2.97;;;;;;;;;;5001293;28;20190;-78
2023/06/29 00:39:29;;;;;;;3.80;2.70;;;;;;;;;;5017021;28;20174;-78
2023/06/29 00:41:55;;;;;;;4.83;2.93;;;;;;;;;;5034071;28;20194;-78
2023/06/29 00:44:22;;;;;;;3.37;2.87;;;;;;;;;;5032655;28;20187;-78
2023/06/29 00:46:49;;;;;;;3.57;3.20;;;;;;;;;;5033882;28;20304;-78
2023/06/29 00:49:18;;;;;;;4.63;3.33;;;;;;;;;;5032447;28;20221;-78
2023/06/29 00:51:48;;;;;;;6.13;3.50;;;;;;;;;;5047188;28;20661;-78
2023/06/29 00:54:14;;;;;;;3.20;2.90;;;;;;;;;;5053582;28;20850;-78
2023/06/29 00:56:41;;;;;;;3.80;3.10;;;;;;;;;;5053655;28;20181;-78
2023/06/29 00:59:08;;;;;;;3.57;2.70;;;;;;;;;;5018868;28;20190;-78
2023/06/29 01:01:34;;;;;;;4.57;2.67;;;;;;;;;;5052990;28;20185;-78
2023/06/29 01:04:00;;;;;;;2.77;2.57;;;;;;;;;;5035677;28;20178;-78
2023/06/29 01:06:32;;;;;;;5.23;2.60;;;;;;;;;;5035160;28;20689;-78
2023/06/29 01:09:04;;;;;;;2.70;2.43;;;;;;;;;;5044456;28;20642;-78
2023/06/29 01:11:31;;;;;;;4.17;2.70;;;;;;;;;;4998799;28;20183;-78
2023/06/29 01:13:57;;;;;;;3.77;2.50;;;;;;;;;;5032956;28;20218;-78
2023/06/29 01:16:24;;;;;;;3.67;2.77;;;;;;;;;;5032920;28;20202;-78
2023/06/29 01:18:51;;;;;;;3.27;2.97;;;;;;;;;;5015451;28;20175;-78
2023/06/29 01:21:18;;;;;;;4.30;3.90;;;;;;;;;;5032500;28;20214;-78
2023/06/29 01:23:45;;;;;;;5.83;4.50;;;;;;;;;;5008952;28;20276;-78
2023/06/29 01:26:12;;;;;;;5.23;4.57;;;;;;;;;;5052464;28;20285;-78
2023/06/29 01:28:38;;;;;;;4.60;4.20;;;;;;;;;;5035082;28;20689;-78
2023/06/29 01:31:09;;;;;;;4.60;4.20;;;;;;;;;;5034540;28;20732;-78
2023/06/29 01:33:35;;;;;;;4.03;3.63;;;;;;;;;;5039437;28;20175;-78
2023/06/29 01:36:06;;;;;;;4.27;3.60;;;;;;;;;;5054049;28;20271;-78
2023/06/29 01:38:38;;;;;;;4.10;3.70;;;;;;;;;;5060434;28;20253;-78
2023/06/29 01:41:07;;;;;;;5.93;3.50;;;;;;;;;;5038779;28;20192;-78
2023/06/29 01:43:35;;;;;;;4.50;4.10;;;;;;;;;;5054185;28;20189;-78
2023/06/29 01:46:02;;;;;;;5.97;4.67;;;;;;;;;;5019300;28;20209;-78
2023/06/29 01:48:29;;;;;;;5.20;4.70;;;;;;;;;;5054225;28;20213;-78
2023/06/29 01:50:55;;;;;;;5.13;4.73;;;;;;;;;;5035455;28;20180;-78
2023/06/29 01:53:21;;;;;;;6.93;3.47;;;;;;;;;;5054537;28;20185;-78
2023/06/29 01:55:47;;;;;;;3.73;2.90;;;;;;;;;;5052285;28;20210;-78
2023/06/29 01:58:13;;;;;;;3.70;3.30;;;;;;;;;;5036290;28;20194;-78
2023/06/29 02:00:40;;;;;;;4.67;4.00;;;;;;;;;;5034558;28;20178;-77
2023/06/29 02:03:06;;;;;;;4.23;3.83;;;;;;;;;;5028470;28;20186;-79
2023/06/29 02:05:32;;;;;;;4.40;3.97;;;;;;;;;;5015064;28;20202;-78
2023/06/29 02:08:00;;;;;;;6.37;4.43;;;;;;;;;;5017253;28;20206;-78
2023/06/29 02:10:26;;;;;;;5.17;4.40;;;;;;;;;;5016954;28;20714;-78
2023/06/29 02:12:53;;;;;;;7.50;4.87;;;;;;;;;;5035387;28;20276;-78
2023/06/29 02:15:19;;;;;;;4.63;4.07;;;;;;;;;;5052219;28;20204;-78
2023/06/29 02:17:45;;;;;;;4.43;4.03;;;;;;;;;;5053214;28;20193;-78
2023/06/29 02:20:12;;;;;;;4.90;4.30;;;;;;;;;;5066371;28;20676;-78
2023/06/29 02:22:39;;;;;;;5.17;4.20;;;;;;;;;;5037934;28;20688;-78
2023/06/29 02:25:05;;;;;;;4.70;4.07;;;;;;;;;;5072941;28;20221;-78
2023/06/29 02:27:31;;;;;;;4.20;3.63;;;;;;;;;;5054124;28;20258;-78
2023/06/29 02:29:57;;;;;;;4.93;3.77;;;;;;;;;;5035217;28;20598;-78
2023/06/29 02:32:23;;;;;;;5.83;4.03;;;;;;;;;;5035202;28;20185;-78
2023/06/29 02:34:50;;;;;;;4.60;3.73;;;;;;;;;;5019247;28;20288;-78
2023/06/29 02:37:16;;;;;;;7.13;4.10;;;;;;;;;;5035800;28;20260;-79
2023/06/29 02:39:43;;;;;;;3.90;3.40;;;;;;;;;;5019107;28;20665;-78
2023/06/29 02:42:09;;;;;;;6.80;3.70;;;;;;;;;;5053180;28;20208;-78
2023/06/29 02:44:35;;;;;;;5.37;3.30;;;;;;;;;;5035551;28;20205;-78
2023/06/29 02:47:01;;;;;;;4.10;3.67;;;;;;;;;;5035210;28;20572;-79
2023/06/29 02:49:30;;;;;;;5.63;3.63;;;;;;;;;;5038518;28;20261;-78
2023/06/29 02:51:56;;;;;;;4.67;3.73;;;;;;;;;;5041160;28;20182;-78
2023/06/29 02:54:22;;;;;;;4.10;3.70;;;;;;;;;;5028318;28;20716;-78
2023/06/29 02:56:51;;;;;;;4.80;3.70;;;;;;;;;;5043318;28;20253;-78
2023/06/29 02:59:17;;;;;;;5.20;3.90;;;;;;;;;;5023182;28;20272;-78
2023/06/29 03:01:43;;;;;;;7.03;4.03;;;;;;;;;;5039322;28;20185;-78
2023/06/29 03:04:09;;;;;;;5.67;3.70;;;;;;;;;;5055455;28;20190;-78
2023/06/29 03:06:35;;;;;;;5.87;4.40;;;;;;;;;;5039219;28;20607;-79
2023/06/29 03:09:02;;;;;;;6.57;4.57;;;;;;;;;;5056544;28;20166;-78
2023/06/29 03:11:28;;;;;;;4.97;4.30;;;;;;;;;;5038471;28;20200;-79
2023/06/29 03:13:55;;;;;;;5.40;3.90;;;;;;;;;;5056363;28;20194;-78
2023/06/29 03:16:22;;;;;;;5.43;4.13;;;;;;;;;;5035860;28;20236;-78
2023/06/29 03:18:48;;;;;;;4.37;3.90;;;;;;;;;;5037724;28;20193;-78
2023/06/29 03:21:20;;;;;;;4.00;3.70;;;;;;;;;;5053760;28;20182;-79
2023/06/29 03:23:47;;;;;;;5.33;3.40;;;;;;;;;;5037266;28;20657;-78
2023/06/29 03:26:13;;;;;;;5.37;3.83;;;;;;;;;;5054605;28;20190;-78
2023/06/29 03:28:39;;;;;;;4.47;3.57;;;;;;;;;;5037462;28;20201;-78
2023/06/29 03:31:06;;;;;;;5.07;3.90;;;;;;;;;;5055460;28;20307;-78
2023/06/29 03:33:32;;;;;;;5.07;3.97;;;;;;;;;;5055876;28;20253;-78
2023/06/29 03:35:58;;;;;;;6.20;4.37;;;;;;;;;;5037161;28;20608;-78
2023/06/29 03:38:24;;;;;;;5.83;4.00;;;;;;;;;;5053626;28;20222;-78
2023/06/29 03:40:50;;;;;;;4.87;4.37;;;;;;;;;;5020972;28;20288;-78
2023/06/29 03:43:16;;;;;;;7.70;3.93;;;;;;;;;;5054601;28;20744;-78
2023/06/29 03:45:43;;;;;;;4.90;3.73;;;;;;;;;;5053912;28;20206;-78
2023/06/29 03:48:09;;;;;;;4.67;3.80;;;;;;;;;;5036057;28;20204;-78
2023/06/29 03:50:35;;;;;;;5.73;4.07;;;;;;;;;;5052763;28;20224;-78
2023/06/29 03:53:01;;;;;;;6.27;3.83;;;;;;;;;;5053134;28;20188;-79
2023/06/29 03:55:27;;;;;;;4.90;4.40;;;;;;;;;;5053035;28;20301;-79
2023/06/29 03:57:54;;;;;;;5.77;4.80;;;;;;;;;;5037363;28;20181;-78
2023/06/29 04:00:20;;;;;;;6.53;4.70;;;;;;;;;;5052044;28;20269;-79
2023/06/29 04:02:46;;;;;;;5.47;4.50;;;;;;;;;;5053164;28;20714;-78
2023/06/29 04:05:12;;;;;;;6.03;4.77;;;;;;;;;;5035771;28;20201;-79
2023/06/29 04:07:39;;;;;;;5.37;4.53;;;;;;;;;;5036294;28;20297;-77
2023/06/29 04:10:05;;;;;;;5.77;4.83;;;;;;;;;;5023965;28;20251;-78
2023/06/29 04:12:31;;;;;;;5.63;4.57;;;;;;;;;;5054431;28;20186;-78
2023/06/29 04:14:57;;;;;;;5.00;4.30;;;;;;;;;;5054294;28;20262;-78
2023/06/29 04:17:23;;;;;;;6.63;4.40;;;;;;;;;;5054623;28;20182;-78
2023/06/29 04:19:49;;;;;;;5.80;4.40;;;;;;;;;;5036238;28;20189;-78
2023/06/29 04:22:16;;;;;;;6.73;4.23;;;;;;;;;;5035600;28;20173;-78
2023/06/29 04:24:42;;;;;;;6.47;3.87;;;;;;;;;;5054300;28;20354;-78
2023/06/29 04:27:08;;;;;;;4.60;3.97;;;;;;;;;;5053717;28;20205;-78
2023/06/29 04:29:34;;;;;;;5.07;3.90;;;;;;;;;;5053838;28;20585;-78
2023/06/29 04:32:00;;;;;;;5.80;4.10;;;;;;;;;;5053210;28;20678;-78
2023/06/29 04:34:26;;;;;;;5.47;3.80;;;;;;;;;;5019227;28;20203;-78
2023/06/29 04:36:56;;;;;;;5.07;4.30;;;;;;;;;;5053212;28;20567;-78
2023/06/29 04:39:22;;;;;;;6.20;4.90;;;;;;;;;;5035297;28;20602;-78
2023/06/29 04:41:48;;;;;;;7.53;5.43;;;;;;;;;;5052753;28;20178;-78
2023/06/29 04:44:14;;;;;;;6.50;5.13;;;;;;;;;;5035153;28;20189;-78
2023/06/29 04:46:41;;;;;;;7.43;5.10;;;;;;;;;;5044025;28;20261;-78
2023/06/29 04:49:07;;;;;;;7.30;4.70;;;;;;;;;;5042519;28;20181;-78
2023/06/29 04:51:34;;;;;;;7.20;5.30;;;;;;;;;;5052533;28;20189;-78
2023/06/29 04:54:01;;;;;;;4.53;4.10;;;;;;;;;;5053092;28;20204;-78
2023/06/29 04:56:27;;;;;;;5.10;3.80;;;;;;;;;;5053044;28;20217;-78
2023/06/29 04:58:53;;;;;;;4.07;3.20;;;;;;;;;;5048546;28;20208;-78
2023/06/29 05:01:19;;;;;;;4.33;3.27;;;;;;;;;;5051349;28;20219;-78
2023/06/29 05:03:45;;;;;;;3.70;3.40;;;;;;;;;;5035177;28;20272;-78
2023/06/29 05:06:11;;;;;;;7.27;4.67;;;;;;;;;;5051965;28;20722;-78
2023/06/29 05:08:37;;;;;;;7.80;4.93;;;;;;;;;;5052315;28;20687;-78
2023/06/29 05:11:03;;;;;;;5.93;5.00;;;;;;;;;;5034228;28;20189;-78
2023/06/29 05:13:30;;;;;;;6.53;5.30;;;;;;;;;;5051675;28;20728;-78
2023/06/29 05:15:56;;;;;;;7.97;5.17;;;;;;;;;;5034266;28;20216;-78
2023/06/29 05:18:22;;;;;;;5.10;4.60;;;;;;;;;;5051953;28;20267;-78
2023/06/29 05:20:48;;;;;;;5.83;4.30;;;;;;;;;;5045116;28;20350;-78
2023/06/29 05:23:14;;;;;;;7.27;4.20;;;;;;;;;;5018215;28;20672;-78
2023/06/29 05:25:41;;;;;;;9.17;4.33;;;;;;;;;;5045962;28;20260;-78
2023/06/29 05:28:08;;;;;;;10.30;4.53;;;;;;;;;;5043243;28;20236;-78
2023/06/29 05:30:34;;;;;;;7.07;4.50;;;;;;;;;;5051952;28;20190;-78
2023/06/29 05:33:00;;;;;;;5.60;4.20;;;;;;;;;;5052399;28;20174;-78
2023/06/29 05:35:26;;;;;;;6.70;4.07;;;;;;;;;;5053031;28;20220;-78
2023/06/29 05:37:52;;;;;;;4.77;3.50;;;;;;;;;;5051945;28;20174;-73
2023/06/29 05:40:19;;;;;;;8.13;4.30;;;;;;;;;;5052231;28;20981;-72
2023/06/29 05:42:45;;;;;;;7.63;4.30;;;;;;;;;;5051509;28;20178;-73
2023/06/29 05:45:12;;;;;;;7.37;4.07;;;;;;;;;;5023661;28;20263;-73
2023/06/29 05:47:38;;;;;;;8.23;4.63;;;;;;;;;;5041596;28;20649;-73
2023/06/29 05:50:05;;;;;;;8.67;4.80;;;;;;;;;;5051220;28;20257;-74
2023/06/29 05:52:33;;;;;;;5.93;4.10;;;;;;;;;;5047285;28;20340;-71
2023/06/29 05:55:00;;;;;;;6.47;3.87;;;;;;;;;;5042158;28;20218;-71
2023/06/29 05:57:26;;;;;;;7.50;4.33;;;;;;;;;;5015220;28;20186;-71
2023/06/29 05:59:52;;;;;;;12.83;4.60;;;;;;;;;;5050501;28;20668;-71
2023/06/29 06:02:18;;;;;;;5.93;4.03;;;;;;;;;;5050762;28;20174;-73
2023/06/29 06:04:45;;;;;;;5.43;4.03;;;;;;;;;;5042463;28;20210;-71
2023/06/29 06:07:11;;;;;;;4.80;3.80;;;;;;;;;;5011142;28;20254;-72
2023/06/29 06:09:37;;;;;;;6.87;3.60;;;;;;;;;;5069323;28;20165;-72
2023/06/29 06:12:05;;;;;;;4.30;3.90;;;;;;;;;;5043927;28;20243;-72
2023/06/29 06:14:31;;;;;;;4.80;3.60;;;;;;;;;;5047636;28;20225;-72
2023/06/29 06:16:57;;;;;;;5.67;4.30;;;;;;;;;;5049954;28;20178;-74
2023/06/29 06:19:24;;;;;;;6.70;4.07;;;;;;;;;;5048616;28;20211;-73
2023/06/29 06:21:50;;;;;;;5.87;4.17;;;;;;;;;;5049104;28;20191;-74
2023/06/29 06:24:16;;;;;;;7.67;4.30;;;;;;;;;;5050809;28;20185;-73
2023/06/29 06:26:42;;;;;;;9.63;4.47;;;;;;;;;;5048406;28;20629;-74
2023/06/29 06:29:08;;;;;;;7.40;4.10;;;;;;;;;;5050157;28;20228;-74
2023/06/29 06:31:34;;;;;;;8.17;3.80;;;;;;;;;;5048736;28;20178;-74
2023/06/29 06:34:00;;;;;;;6.97;3.80;;;;;;;;;;5054324;28;20185;-74
2023/06/29 06:36:30;;;;;;;5.80;3.90;;;;;;;;;;5039504;28;20296;-74
2023/06/29 06:38:56;;;;;;;7.20;4.10;;;;;;;;;;5020771;28;20672;-72
2023/06/29 06:41:22;;;;;;;6.23;3.47;;;;;;;;;;5049521;28;20182;-74
2023/06/29 06:43:48;;;;;;;7.93;3.33;;;;;;;;;;5038630;28;20179;-74
2023/06/29 06:46:14;;;;;;;8.83;3.70;;;;;;;;;;5049759;28;20194;-74
2023/06/29 06:48:40;;;;;;;4.67;3.70;;;;;;;;;;5045938;28;20288;-75
2023/06/29 06:51:06;;;;;;;7.00;3.40;;;;;;;;;;5050269;28;20181;-75
2023/06/29 06:53:33;;;;;;;4.60;3.10;;;;;;;;;;5045431;28;20247;-75
2023/06/29 06:55:59;;;;;;;5.97;3.50;;;;;;;;;;5046776;28;20312;-75
2023/06/29 06:58:25;;;;;;;4.17;3.13;;;;;;;;;;5041761;28;20562;-75
2023/06/29 07:00:51;;;;;;;6.00;3.60;;;;;;;;;;5049780;28;20194;-75
2023/06/29 07:03:19;;;;;;;6.97;3.43;;;;;;;;;;5048054;28;20528;-74
2023/06/29 07:05:45;;;;;;;6.17;3.10;;;;;;;;;;5050738;28;20226;-75
2023/06/29 07:08:11;;;;;;;6.10;3.23;;;;;;;;;;5051192;28;20213;-75
2023/06/29 07:10:37;;;;;;;4.47;3.07;;;;;;;;;;5049915;28;20184;-75
2023/06/29 07:13:03;;;;;;;3.37;2.90;;;;;;;;;;5046589;28;20239;-75
2023/06/29 07:15:30;;;;;;;6.80;2.70;;;;;;;;;;5040069;28;20212;-75
2023/06/29 07:17:56;;;;;;;4.30;3.00;;;;;;;;;;5039778;28;20220;-75
2023/06/29 07:20:22;;;;;;;4.10;2.63;;;;;;;;;;5043397;28;20224;-75
2023/06/29 07:22:49;;;;;;;4.80;3.30;;;;;;;;;;5044506;28;21210;-74
2023/06/29 07:25:15;;;;;;;5.90;2.77;;;;;;;;;;5043446;28;20232;-75
2023/06/29 07:27:42;;;;;;;5.17;3.07;;;;;;;;;;5028321;28;20302;-74
2023/06/29 07:30:08;;;;;;;3.93;2.90;;;;;;;;;;5048808;28;20178;-75
2023/06/29 07:32:35;;;;;;;3.60;3.10;;;;;;;;;;5045282;28;20185;-75
2023/06/29 07:35:01;;;;;;;3.80;3.00;;;;;;;;;;5023791;28;20241;-75
2023/06/29 07:37:27;;;;;;;2.87;2.57;;;;;;;;;;5040003;28;20178;-75
2023/06/29 07:39:53;;;;;;;5.47;3.00;;;;;;;;;;5022050;28;20190;-74
2023/06/29 07:42:19;;;;;;;4.20;2.50;;;;;;;;;;5040965;28;20186;-75
2023/06/29 07:44:45;;;;;;;3.40;2.60;;;;;;;;;;5051587;28;20621;-75
2023/06/29 07:47:12;;;;;;;3.93;2.50;;;;;;;;;;5041035;28;20205;-75
2023/06/29 07:49:38;;;;;;;5.30;2.70;;;;;;;;;;5051758;28;20607;-75
2023/06/29 07:52:04;;;;;;;4.67;2.50;;;;;;;;;;5048579;28;20185;-77
2023/06/29 07:54:30;;;;;;;3.87;2.60;;;;;;;;;;5036997;28;20217;-76
2023/06/29 07:56:56;;;;;;;3.27;2.43;;;;;;;;;;5048445;28;20243;-76
2023/06/29 07:59:22;;;;;;;4.23;2.60;;;;;;;;;;5033465;28;20191;-75
2023/06/29 08:01:49;;;;;;;3.10;2.50;;;;;;;;;;5053006;28;20208;-75
2023/06/29 08:04:16;;;;;;;5.17;2.70;;;;;;;;;;5052827;28;20194;-75
2023/06/29 08:06:43;;;;;;;6.10;2.67;;;;;;;;;;5053114;28;20186;-75
2023/06/29 08:09:11;;;;;;;7.00;3.33;;;;;;;;;;5049730;28;20635;-74
2023/06/29 08:11:37;;;;;;;3.53;2.40;;;;;;;;;;5052892;28;20182;-75
2023/06/29 08:14:04;;;;;;;2.30;2.10;;;;;;;;;;5053468;28;20178;-75
2023/06/29 08:16:30;;;;;;;3.60;2.20;;;;;;;;;;5048571;28;20338;-75
2023/06/29 08:18:56;;;;;;;3.13;2.30;;;;;;;;;;5047969;28;20189;-76
2023/06/29 08:21:22;;;;;;;2.67;1.97;;;;;;;;;;5048510;28;20290;-76
2023/06/29 08:23:50;;;;;;;3.57;2.23;;;;;;;;;;5048833;28;20193;-75
2023/06/29 08:26:16;;;;;;;3.70;2.17;;;;;;;;;;5050688;28;20220;-74
2023/06/29 08:28:43;;;;;;;3.27;2.20;;;;;;;;;;5052840;28;20233;-75
2023/06/29 08:31:09;;;;;;;2.90;2.20;;;;;;;;;;5048651;28;20645;-75
2023/06/29 08:33:35;;;;;;;4.47;2.40;;;;;;;;;;5039949;28;20189;-75
2023/06/29 08:36:01;;;;;;;3.90;2.87;;;;;;;;;;5052863;28;20194;-76
2023/06/29 08:38:27;;;;;;;2.63;2.20;;;;;;;;;;5050213;28;20182;-74
2023/06/29 08:40:57;;;;;;;3.23;2.10;;;;;;;;;;5046814;28;20805;-75
2023/06/29 08:43:23;;;;;;;2.80;2.10;;;;;;;;;;5050799;28;20198;-75
2023/06/29 08:45:49;;;;;;;2.40;2.17;;;;;;;;;;5049345;28;20198;-75
2023/06/29 08:48:17;;;;;;;4.60;2.40;;;;;;;;;;5052694;28;20660;-75
2023/06/29 08:50:46;;;;;;;2.60;2.10;;;;;;;;;;5049389;28;20254;-75
2023/06/29 08:53:13;;;;;;;5.73;2.33;;;;;;;;;;5047759;28;20297;-75
2023/06/29 08:55:40;;;;;;;3.20;2.13;;;;;;;;;;5049589;28;20217;-75
2023/06/29 08:58:06;;;;;;;3.37;2.53;;;;;;;;;;5040112;28;20190;-75
2023/06/29 09:00:33;;;;;;;2.70;2.43;;;;;;;;;;5046650;28;20221;-75
2023/06/29 09:02:59;;;;;;;2.53;2.20;;;;;;;;;;5050461;28;20181;-74
2023/06/29 09:05:25;;;;;;;2.90;2.40;;;;;;;;;;5049853;28;20260;-74
2023/06/29 09:07:53;;;;;;;3.23;2.50;;;;;;;;;;5051540;28;20343;-75
2023/06/29 09:10:19;;;;;;;4.43;2.40;;;;;;;;;;5051526;28;20179;-75
2023/06/29 09:12:47;;;;;;;2.80;2.40;;;;;;;;;;5044709;28;20657;-75
2023/06/29 09:15:14;;;;;;;2.90;2.30;;;;;;;;;;5045263;28;20198;-75
2023/06/29 09:17:47;;;;;;;2.93;1.90;;;;;;;;;;5047896;28;20281;-76
2023/06/29 09:20:13;;;;;;;2.27;2.07;;;;;;;;;;5048803;28;20210;-76
2023/06/29 09:22:40;;;;;;;2.70;2.10;;;;;;;;;;5058385;28;20188;-76
2023/06/29 09:25:09;;;;;;;3.77;2.10;;;;;;;;;;5034267;28;20215;-75
2023/06/29 09:27:35;;;;;;;4.23;2.50;;;;;;;;;;5051654;28;20209;-76
2023/06/29 09:30:02;;;;;;;2.93;2.23;;;;;;;;;;5032415;28;20721;-76
2023/06/29 09:32:29;;;;;;;2.13;1.90;;;;;;;;;;5051397;28;20169;-75
2023/06/29 09:34:55;;;;;;;2.67;2.40;;;;;;;;;;5051358;28;20190;-76
2023/06/29 09:37:22;;;;;;;3.73;2.30;;;;;;;;;;5050815;28;20285;-75
2023/06/29 09:39:51;;;;;;;2.83;2.20;;;;;;;;;;5050597;28;20559;-76
2023/06/29 09:42:17;;;;;;;4.40;2.40;;;;;;;;;;5051326;28;20604;-75
2023/06/29 09:44:45;;;;;;;5.10;2.40;;;;;;;;;;5051325;28;20209;-76
2023/06/29 09:47:12;;;;;;;4.60;2.37;;;;;;;;;;5051216;28;20574;-75
2023/06/29 09:49:45;;;;;;;2.87;2.17;;;;;;;;;;5051575;28;20268;-76
2023/06/29 09:52:11;;;;;;;4.20;2.27;;;;;;;;;;5051225;28;20656;-75
2023/06/29 09:54:37;;;;;;;2.93;2.20;;;;;;;;;;5042866;28;20213;-75
2023/06/29 09:57:04;;;;;;;3.33;2.50;;;;;;;;;;5049489;28;20238;-75
2023/06/29 09:59:35;;;;;;;2.93;2.20;;;;;;;;;;5051453;28;20184;-75
2023/06/29 10:02:01;;;;;;;4.47;2.30;;;;;;;;;;5032515;28;20764;-75
2023/06/29 10:04:27;;;;;;;3.07;2.30;;;;;;;;;;5050961;28;20673;-75
2023/06/29 10:06:57;;;;;;;2.87;2.40;;;;;;;;;;5050014;28;20687;-73
2023/06/29 10:09:24;;;;;;;2.50;2.30;;;;;;;;;;5051221;28;20177;-74
2023/06/29 10:11:53;;;;;;;3.87;2.13;;;;;;;;;;5048817;28;20183;-73
2023/06/29 10:14:20;;;;;;;2.63;2.40;;;;;;;;;;5052807;28;20174;-73
2023/06/29 10:16:48;;;;;;;3.80;2.20;;;;;;;;;;5022170;28;20185;-74
2023/06/29 10:19:17;;;;;;;3.37;2.30;;;;;;;;;;5031115;28;20193;-72
2023/06/29 10:21:43;;;;;;;3.07;2.40;;;;;;;;;;5046386;28;20212;-73
2023/06/29 10:24:12;;;;;;;3.50;2.73;;;;;;;;;;5049627;28;20839;-77
2023/06/29 10:26:38;;;;;;;2.47;2.27;;;;;;;;;;5047847;28;20181;-77
2023/06/29 10:29:04;;;;;;;2.40;2.20;;;;;;;;;;5050685;28;20185;-74
2023/06/29 10:31:32;;;;;;;3.60;2.20;;;;;;;;;;5033743;28;20184;-74
2023/06/29 10:33:58;;;;;;;2.70;2.23;;;;;;;;;;5049516;28;20661;-75
2023/06/29 10:36:25;;;;;;;4.00;2.37;;;;;;;;;;5032185;28;20205;-74
2023/06/29 10:38:52;;;;;;;4.33;2.70;;;;;;;;;;5051293;28;20182;-74
2023/06/29 10:41:26;;;;;;;2.97;2.10;;;;;;;;;;5051205;28;20683;-74
2023/06/29 10:43:59;;;;;;;3.00;2.33;;;;;;;;;;5050939;28;20232;-73
2023/06/29 10:47:00;;;;;;;4.43;2.37;;;;;;;;;;5050900;28;20302;-74
2023/06/29 10:49:28;;;;;;;7.63;2.50;;;;;;;;;;4987560;28;20610;-72
2023/06/29 10:51:55;;;;;;;3.30;2.77;;;;;;;;;;5037934;28;20219;-76
2023/06/29 10:54:22;;;;;;;3.50;2.60;;;;;;;;;;5050041;28;20204;-76
2023/06/29 10:56:56;;;;;;;3.10;2.40;;;;;;;;;;5050190;28;20533;-76
2023/06/29 10:59:22;;;;;;;3.87;2.30;;;;;;;;;;5040278;28;20174;-76
2023/06/29 11:01:50;;;;;;;3.30;2.57;;;;;;;;;;5048147;28;20667;-77
2023/06/29 11:04:16;;;;;;;2.97;2.43;;;;;;;;;;5042982;28;20296;-77
2023/06/29 11:06:42;;;;;;;2.60;2.33;;;;;;;;;;5050343;28;20233;-77
2023/06/29 11:09:15;;;;;;;5.23;2.63;;;;;;;;;;5050347;28;20178;-77
2023/06/29 11:11:42;;;;;;;2.93;2.57;;;;;;;;;;5048706;28;20194;-78
2023/06/29 11:14:11;;;;;;;3.73;2.40;;;;;;;;;;5046671;28;20184;-76
2023/06/29 11:16:39;;;;;;;4.37;2.30;;;;;;;;;;5047439;28;20206;-77
2023/06/29 11:19:05;;;;;;;2.83;2.23;;;;;;;;;;5047941;28;20688;-76
2023/06/29 11:21:31;;;;;;;4.27;2.40;;;;;;;;;;5048603;28;20182;-76
2023/06/29 11:23:58;;;;;;;2.83;2.50;;;;;;;;;;5049134;28;20780;-77
2023/06/29 11:26:24;;;;;;;3.50;2.20;;;;;;;;;;5049491;28;20213;-77
2023/06/29 11:28:51;;;;;;;4.40;2.50;;;;;;;;;;5049353;28;20210;-77
2023/06/29 11:31:17;;;;;;;2.60;2.30;;;;;;;;;;5050063;28;20178;-76
2023/06/29 11:33:47;;;;;;;5.00;2.63;;;;;;;;;;5047109;28;20182;-76
2023/06/29 11:36:13;;;;;;;3.20;2.43;;;;;;;;;;5050317;28;20263;-76
2023/06/29 11:38:39;;;;;;;4.43;2.77;;;;;;;;;;5049506;28;20693;-77
2023/06/29 11:41:06;;;;;;;5.10;3.10;;;;;;;;;;5050383;28;20557;-76
2023/06/29 11:43:32;;;;;;;5.30;2.90;;;;;;;;;;5048690;28;20251;-76
2023/06/29 11:45:58;;;;;;;6.70;3.17;;;;;;;;;;5049242;28;20219;-76
2023/06/29 11:48:24;;;;;;;4.87;2.93;;;;;;;;;;5049381;28;20248;-76
2023/06/29 11:50:51;;;;;;;5.40;4.00;;;;;;;;;;5049122;28;20653;-77
2023/06/29 11:53:17;;;;;;;4.63;3.40;;;;;;;;;;5048130;28;20178;-77
2023/06/29 11:55:54;;;;;;;4.27;3.57;;;;;;;;;;5048708;28;20214;-76
2023/06/29 11:58:21;;;;;;;9.63;4.47;;;;;;;;;;5048905;28;20228;-76
2023/06/29 12:00:55;;;;;;;7.87;4.23;;;;;;;;;;5047791;28;20189;-76
2023/06/29 12:03:21;;;;;;;7.03;4.13;;;;;;;;;;5047324;28;20665;-76
2023/06/29 12:05:47;;;;;;;6.50;3.97;;;;;;;;;;5048455;28;20204;-76
2023/06/29 12:08:15;;;;;;;7.43;3.90;;;;;;;;;;5040705;28;20217;-77
2023/06/29 12:10:41;;;;;;;5.07;3.60;;;;;;;;;;5030942;28;20190;-76
2023/06/29 12:13:09;;;;;;;7.43;3.80;;;;;;;;;;5048790;28;20189;-76
2023/06/29 12:15:35;;;;;;;5.87;3.93;;;;;;;;;;5048468;28;20198;-77
2023/06/29 12:18:14;;;;;;;5.40;3.93;;;;;;;;;;5048318;28;20195;-76
2023/06/29 12:20:42;;;;;;;6.87;3.63;;;;;;;;;;5048307;28;20189;-76
2023/06/29 12:23:08;;;;;;;4.47;2.90;;;;;;;;;;5047597;28;20193;-76
2023/06/29 12:25:41;;;;;;;5.43;3.37;;;;;;;;;;5048355;28;20293;-76
2023/06/29 12:28:07;;;;;;;5.20;3.40;;;;;;;;;;5037817;28;20244;-76
2023/06/29 12:30:33;;;;;;;5.23;3.17;;;;;;;;;;5047650;28;20212;-76
2023/06/29 12:33:00;;;;;;;3.30;3.00;;;;;;;;;;5048040;28;20259;-76
2023/06/29 12:35:27;;;;;;;6.17;3.67;;;;;;;;;;5048191;28;20229;-76
2023/06/29 12:37:53;;;;;;;8.30;3.30;;;;;;;;;;5046290;28;20281;-77
2023/06/29 12:40:19;;;;;;;6.33;3.20;;;;;;;;;;5047819;28;20653;-76
2023/06/29 12:42:46;;;;;;;7.20;3.57;;;;;;;;;;5030396;28;20286;-76
2023/06/29 12:45:12;;;;;;;5.27;3.60;;;;;;;;;;5029753;28;20201;-76
2023/06/29 12:47:39;;;;;;;5.23;3.10;;;;;;;;;;5047777;28;20205;-76
2023/06/29 12:50:05;;;;;;;3.50;2.87;;;;;;;;;;5048529;28;20268;-76
2023/06/29 12:52:32;;;;;;;5.10;3.40;;;;;;;;;;5030325;28;20288;-76
2023/06/29 12:54:58;;;;;;;4.73;3.10;;;;;;;;;;5047961;28;20683;-76
2023/06/29 12:57:28;;;;;;;5.30;3.43;;;;;;;;;;5047340;28;20276;-76
2023/06/29 12:59:59;;;;;;;4.97;3.07;;;;;;;;;;5030240;28;20292;-76
2023/06/29 13:02:26;;;;;;;5.27;3.30;;;;;;;;;;5047651;28;20294;-76
2023/06/29 13:04:52;;;;;;;4.03;3.00;;;;;;;;;;5047148;28;20217;-76
2023/06/29 13:07:19;;;;;;;3.93;2.87;;;;;;;;;;5047823;28;20285;-76
2023/06/29 13:09:47;;;;;;;6.87;3.27;;;;;;;;;;5047340;28;20209;-77
2023/06/29 13:12:17;;;;;;;6.33;3.40;;;;;;;;;;5047425;28;20645;-76
2023/06/29 13:14:44;;;;;;;8.47;3.30;;;;;;;;;;5047495;28;20215;-77
2023/06/29 13:17:13;;;;;;;5.63;3.27;;;;;;;;;;5046932;28;20210;-77
2023/06/29 13:19:44;;;;;;;3.77;2.90;;;;;;;;;;5047084;28;20190;-77
2023/06/29 13:22:10;;;;;;;4.70;2.80;;;;;;;;;;5046352;28;20217;-76
2023/06/29 13:24:37;;;;;;;7.43;3.53;;;;;;;;;;5047176;28;20251;-77
2023/06/29 13:27:04;;;;;;;3.83;3.10;;;;;;;;;;5048643;28;20200;-78
2023/06/29 13:29:30;;;;;;;3.77;2.77;;;;;;;;;;5048808;28;21428;-76
2023/06/29 13:31:57;;;;;;;6.57;3.27;;;;;;;;;;5051200;28;20189;-78
2023/06/29 13:34:23;;;;;;;5.77;3.20;;;;;;;;;;5052321;28;20186;-78
2023/06/29 13:36:49;;;;;;;5.27;3.27;;;;;;;;;;5048353;28;20236;-81
2023/06/29 13:39:15;;;;;;;4.10;3.30;;;;;;;;;;5035769;28;20270;-78
2023/06/29 13:41:43;;;;;;;3.97;2.93;;;;;;;;;;5053859;28;20186;-79
2023/06/29 13:44:11;;;;;;;3.93;3.10;;;;;;;;;;5024280;28;20618;-79
2023/06/29 13:46:38;;;;;;;5.73;3.60;;;;;;;;;;5059853;28;20265;-79
2023/06/29 13:49:04;;;;;;;4.33;3.20;;;;;;;;;;5060277;28;20217;-79
2023/06/29 13:51:31;;;;;;;5.00;3.20;;;;;;;;;;5055586;28;20201;-79
2023/06/29 13:53:58;;;;;;;5.80;3.00;;;;;;;;;;5017529;28;20184;-79
2023/06/29 13:56:24;;;;;;;3.83;3.20;;;;;;;;;;5052559;28;20292;-79
2023/06/29 13:58:51;;;;;;;7.33;3.87;;;;;;;;;;5052328;28;20190;-79
2023/06/29 14:01:18;;;;;;;5.87;3.67;;;;;;;;;;5052815;28;20251;-79
2023/06/29 14:03:46;;;;;;;4.40;3.40;;;;;;;;;;5052147;28;20307;-79
2023/06/29 14:06:12;;;;;;;4.07;3.20;;;;;;;;;;5054539;28;20312;-79
2023/06/29 14:08:39;;;;;;;3.43;2.90;;;;;;;;;;5055724;28;20185;-79
2023/06/29 14:11:06;;;;;;;4.57;2.90;;;;;;;;;;5057215;28;20182;-79
2023/06/29 14:13:32;;;;;;;4.47;3.40;;;;;;;;;;5054298;28;20171;-79
2023/06/29 14:15:58;;;;;;;4.93;3.40;;;;;;;;;;5054580;28;20336;-79
2023/06/29 14:18:25;;;;;;;6.40;3.17;;;;;;;;;;5051607;28;20710;-79
2023/06/29 14:20:51;;;;;;;4.33;3.43;;;;;;;;;;5056521;28;20193;-79
2023/06/29 14:23:18;;;;;;;3.87;3.10;;;;;;;;;;5056524;28;20176;-79
2023/06/29 14:25:45;;;;;;;4.30;2.60;;;;;;;;;;5056230;28;20292;-79
2023/06/29 14:28:11;;;;;;;3.90;2.90;;;;;;;;;;5056809;28;20293;-79
2023/06/29 14:30:37;;;;;;;7.03;3.17;;;;;;;;;;5058107;28;20175;-79
2023/06/29 14:33:03;;;;;;;5.03;2.90;;;;;;;;;;5056527;28;20180;-79
2023/06/29 14:35:29;;;;;;;4.47;3.10;;;;;;;;;;5056899;28;20194;-79
2023/06/29 14:37:56;;;;;;;5.23;3.20;;;;;;;;;;5057418;28;20852;-78
2023/06/29 14:40:22;;;;;;;4.67;3.00;;;;;;;;;;5056911;28;20262;-78